Portada
METAR-TAF:

METAR-TAF

Aeropuertos :

Riverside Municipal Airport

Riverside, California, Estados Unidos

latitud: 33-57-05N, longitud: 117-27-02W, altitud: 248 m

Observación

El informe se hizo hace 46 minutos, a las 01:53 UTC
Viento 6 kt del oeste
Temperatura 19°C
Humedad 52%
Presión 1020 hPa
Visibilidad: 16.1 km
Cielo despejado

METAR: KRAL 310153Z 26006KT 10SM CLR 19/09 A3013 RMK AO2 SLP192 T01890089

Hora: 19:39 (02:39 UTC)


TAF: falta

Observaciones y pronósticos meteorológicos de más de 4000 aeropuertos (mensajes METAR y TAF).

Los puntos amarillos y rojos representan las estaciones disponibles.

Ponga el ratón en el punto deseado para ver el nombre de la estación.

Haga clic para ver las observaciones y los pronósticos meteorológicos.

Para cambiar el mapa : haga clic en los botones verdes con una cruz de color negro para hacer un zoom, en el botón verde con un guión para alejar o en las flechas verdes para mapas adyacentes.


METAR-TAF: